createdAt,value
2023-05-14T00:03:47.588Z,13.11
2023-05-14T00:06:16.878Z,13.30
2023-05-14T00:08:43.901Z,13.16
2023-05-14T00:11:11.133Z,13.14
2023-05-14T00:18:05.496Z,13.10
2023-05-14T00:20:32.596Z,12.93
2023-05-14T00:27:24.940Z,12.96
2023-05-14T00:30:02.882Z,12.97
2023-05-14T00:32:31.716Z,12.72
2023-05-14T00:39:36.011Z,12.77
2023-05-14T00:42:03.023Z,12.81
2023-05-14T00:48:56.069Z,12.49
2023-05-14T00:51:23.717Z,12.72
2023-05-14T00:53:51.096Z,12.78
2023-05-14T00:56:19.244Z,12.68
2023-05-14T01:03:11.104Z,12.58
2023-05-14T01:15:05.076Z,12.55
2023-05-14T01:22:03.435Z,12.31
2023-05-14T01:33:48.601Z,12.34
2023-05-14T01:40:51.248Z,12.08
2023-05-14T01:47:48.582Z,12.14
2023-05-14T01:50:16.227Z,12.14
2023-05-14T01:57:11.189Z,11.78
2023-05-14T01:59:38.228Z,12.00
2023-05-14T02:06:40.356Z,11.71
2023-05-14T02:09:07.498Z,11.88
2023-05-14T02:16:01.387Z,11.69
2023-05-14T02:18:51.148Z,11.87
2023-05-14T02:21:18.343Z,11.74
2023-05-14T02:28:13.398Z,11.87
2023-05-14T02:30:40.564Z,11.70
2023-05-14T02:37:32.931Z,11.79
2023-05-14T02:40:00.237Z,11.86
2023-05-14T02:42:27.347Z,11.93
2023-05-14T02:49:19.834Z,11.68
2023-05-14T02:51:49.798Z,11.81
2023-05-14T02:54:16.965Z,11.88
2023-05-14T02:56:44.179Z,11.79
2023-05-14T03:01:16.897Z,11.44
2023-05-14T03:04:06.043Z,11.71
2023-05-14T03:06:33.123Z,11.81
2023-05-14T03:13:25.494Z,11.93
2023-05-14T03:15:55.182Z,12.08
2023-05-14T03:22:57.586Z,11.86
2023-05-14T03:25:24.763Z,12.07
2023-05-14T03:36:53.842Z,11.96
2023-05-14T03:39:21.344Z,12.00
2023-05-14T03:41:48.502Z,12.02
2023-05-14T03:48:46.711Z,12.14
2023-05-14T03:55:50.870Z,12.08
2023-05-14T03:58:18.536Z,11.99
2023-05-14T04:00:45.747Z,12.29
2023-05-14T04:10:14.132Z,12.32
2023-05-14T04:19:24.755Z,12.33
2023-05-14T04:21:51.758Z,12.42
2023-05-14T04:24:18.791Z,12.46
2023-05-14T04:33:27.972Z,12.58
2023-05-14T04:35:54.977Z,12.75
2023-05-14T04:47:22.894Z,13.09
2023-05-14T04:49:50.176Z,13.31
2023-05-14T04:52:17.113Z,13.16
2023-05-14T05:01:31.601Z,12.73
2023-05-14T05:03:58.863Z,12.63
2023-05-14T05:09:13.831Z,12.61
2023-05-14T05:17:35.051Z,12.75
2023-05-14T05:20:04.170Z,12.63
2023-05-14T05:25:16.937Z,12.68
2023-05-14T05:27:43.949Z,12.94
2023-05-14T05:41:05.886Z,13.40
2023-05-14T05:46:15.183Z,13.56
2023-05-14T05:48:42.136Z,13.67
2023-05-14T05:51:09.212Z,13.68
2023-05-14T05:53:42.309Z,13.93
2023-05-14T06:07:39.602Z,14.14
2023-05-14T06:26:41.739Z,14.61
2023-05-14T06:29:08.794Z,14.87
2023-05-14T06:31:38.234Z,14.92
2023-05-14T06:34:05.334Z,14.90
2023-05-14T06:53:02.317Z,15.79
2023-05-14T06:55:29.349Z,15.87
2023-05-14T06:57:56.344Z,15.89
2023-05-14T07:00:23.699Z,16.21
2023-05-14T07:02:57.022Z,15.96
2023-05-14T07:05:25.215Z,15.98
2023-05-14T07:07:52.393Z,16.04
2023-05-14T07:10:19.443Z,15.97
2023-05-14T07:24:15.704Z,15.75
2023-05-14T07:26:42.749Z,15.58
2023-05-14T07:29:12.298Z,15.66
2023-05-14T07:37:11.953Z,15.49
2023-05-14T07:39:39.223Z,15.38
2023-05-14T07:42:06.448Z,15.16
2023-05-14T07:44:33.436Z,15.12
2023-05-14T07:47:00.599Z,15.05
2023-05-14T07:49:27.745Z,14.90
2023-05-14T07:51:54.710Z,14.88
2023-05-14T07:54:21.786Z,15.15
2023-05-14T07:56:48.747Z,15.26
2023-05-14T07:59:15.872Z,15.08
2023-05-14T08:01:42.936Z,15.41
2023-05-14T08:04:12.337Z,15.61
2023-05-14T08:06:39.415Z,15.68
2023-05-14T08:09:06.898Z,15.92
2023-05-14T08:11:33.986Z,15.90
2023-05-14T08:14:01.105Z,15.90
2023-05-14T08:16:28.236Z,15.96
2023-05-14T08:18:55.492Z,15.99
2023-05-14T08:21:22.911Z,15.90
2023-05-14T08:23:49.865Z,15.90
2023-05-14T08:26:16.842Z,15.83
2023-05-14T08:28:43.814Z,16.23
2023-05-14T08:31:10.998Z,16.34
2023-05-14T08:33:38.153Z,16.55
2023-05-14T08:36:05.641Z,16.49
2023-05-14T08:38:32.640Z,16.35
2023-05-14T08:41:00.621Z,16.36
2023-05-14T08:43:35.485Z,16.15
2023-05-14T08:46:07.172Z,16.00
2023-05-14T08:48:35.420Z,16.00
2023-05-14T08:51:03.130Z,15.76
2023-05-14T08:53:31.359Z,15.94
2023-05-14T08:56:00.319Z,16.15
2023-05-14T08:58:29.693Z,16.17
2023-05-14T09:00:59.556Z,16.43
2023-05-14T09:03:27.144Z,16.72
2023-05-14T09:05:54.615Z,16.83
2023-05-14T09:08:22.095Z,16.97
2023-05-14T09:10:49.262Z,17.02
2023-05-14T09:13:16.537Z,16.78
2023-05-14T09:15:43.602Z,16.28
2023-05-14T09:18:29.398Z,15.86
2023-05-14T09:20:56.500Z,15.68
2023-05-14T09:23:26.761Z,15.79
2023-05-14T09:25:53.819Z,16.09
2023-05-14T09:28:23.045Z,16.21
2023-05-14T09:30:53.040Z,16.23
2023-05-14T09:33:28.452Z,16.31
2023-05-14T09:35:59.738Z,16.60
2023-05-14T09:38:33.201Z,16.41
2023-05-14T09:41:01.228Z,16.68
2023-05-14T09:43:28.900Z,16.57
2023-05-14T09:46:01.275Z,16.21
2023-05-14T09:48:29.046Z,15.94
2023-05-14T09:50:56.103Z,15.78
2023-05-14T09:53:23.390Z,15.40
2023-05-14T09:55:50.898Z,15.39
2023-05-14T09:58:19.478Z,15.70
2023-05-14T10:00:47.992Z,15.91
2023-05-14T10:03:18.752Z,16.15
2023-05-14T10:05:49.648Z,16.17
2023-05-14T10:08:26.897Z,16.39
2023-05-14T10:10:58.665Z,16.61
2023-05-14T10:13:31.881Z,16.74
2023-05-14T10:16:09.798Z,16.92
2023-05-14T10:18:43.153Z,17.29
2023-05-14T10:21:11.793Z,17.27
2023-05-14T10:23:39.208Z,17.15
2023-05-14T10:26:07.064Z,16.85
2023-05-14T10:28:34.456Z,16.54
2023-05-14T10:31:01.543Z,16.34
2023-05-14T10:33:28.847Z,16.14
2023-05-14T10:36:05.846Z,16.21
2023-05-14T10:38:35.118Z,16.48
2023-05-14T10:41:04.276Z,16.66
2023-05-14T10:43:36.470Z,16.74
2023-05-14T10:46:04.515Z,16.88
2023-05-14T10:48:33.032Z,17.00
2023-05-14T10:51:03.460Z,17.06
2023-05-14T10:53:36.429Z,17.22
2023-05-14T10:56:11.780Z,17.09
2023-05-14T10:58:44.049Z,16.94
2023-05-14T11:01:13.115Z,16.80
2023-05-14T11:06:31.563Z,16.93
2023-05-14T11:09:02.952Z,16.91
2023-05-14T11:11:30.132Z,16.80
2023-05-14T11:13:58.301Z,16.99
2023-05-14T11:16:30.921Z,17.20
2023-05-14T11:19:03.784Z,17.24
2023-05-14T11:21:33.113Z,17.40
2023-05-14T11:24:01.052Z,17.18
2023-05-14T11:26:28.103Z,17.18
2023-05-14T11:28:55.464Z,17.34
2023-05-14T11:31:22.699Z,17.11
2023-05-14T11:34:14.887Z,16.98
2023-05-14T11:36:42.448Z,17.00
2023-05-14T11:39:27.956Z,17.10
2023-05-14T11:41:55.029Z,17.35
2023-05-14T11:44:22.910Z,16.99
2023-05-14T11:46:57.657Z,16.81
2023-05-14T11:49:25.759Z,16.98
2023-05-14T11:52:00.323Z,17.09
2023-05-14T11:54:31.009Z,17.42
2023-05-14T11:56:59.509Z,17.56
2023-05-14T11:59:45.881Z,17.23
2023-05-14T12:02:15.164Z,17.32
2023-05-14T12:04:43.072Z,17.20
2023-05-14T12:07:12.395Z,16.99
2023-05-14T12:09:44.276Z,16.85
2023-05-14T12:12:12.901Z,17.30
2023-05-14T12:14:43.840Z,17.64
2023-05-14T12:17:18.057Z,17.58
2023-05-14T12:19:47.013Z,17.37
2023-05-14T12:22:38.844Z,17.35
2023-05-14T12:25:12.976Z,16.78
2023-05-14T12:27:40.623Z,16.83
2023-05-14T12:32:42.293Z,17.03
2023-05-14T12:35:09.727Z,17.06
2023-05-14T12:37:37.746Z,16.90
2023-05-14T12:40:09.367Z,17.03
2023-05-14T12:42:37.454Z,16.76
2023-05-14T12:45:08.176Z,16.63
2023-05-14T12:47:36.499Z,16.61
2023-05-14T12:50:04.068Z,16.52
2023-05-14T12:52:38.565Z,16.40
2023-05-14T12:55:08.316Z,16.53
2023-05-14T12:57:35.858Z,16.56
2023-05-14T13:00:07.238Z,16.50
2023-05-14T13:02:42.771Z,16.44
2023-05-14T13:05:12.310Z,16.21
2023-05-14T13:07:39.907Z,16.21
2023-05-14T13:10:07.531Z,15.94
2023-05-14T13:12:34.597Z,16.52
2023-05-14T13:15:01.595Z,16.41
2023-05-14T13:17:31.139Z,16.56
2023-05-14T13:19:58.411Z,17.04
2023-05-14T13:22:25.547Z,16.85
2023-05-14T13:24:52.524Z,16.85
2023-05-14T13:27:19.574Z,16.95
2023-05-14T13:29:46.609Z,17.70
2023-05-14T13:32:13.692Z,17.52
2023-05-14T13:34:40.778Z,17.28
2023-05-14T13:37:33.363Z,17.52
2023-05-14T13:43:36.465Z,17.90
2023-05-14T13:52:33.207Z,16.96
2023-05-14T13:55:00.271Z,16.72
2023-05-14T13:57:27.416Z,16.67
2023-05-14T13:59:54.470Z,16.68
2023-05-14T14:08:26.921Z,16.32
2023-05-14T14:10:55.574Z,16.29
2023-05-14T14:13:23.411Z,16.24
2023-05-14T14:15:51.949Z,16.24
2023-05-14T14:19:12.557Z,16.33
2023-05-14T14:21:42.931Z,16.32
2023-05-14T14:24:10.246Z,16.26
2023-05-14T14:26:37.412Z,16.40
2023-05-14T14:29:04.598Z,16.35
2023-05-14T14:32:48.466Z,16.52
2023-05-14T14:57:55.183Z,16.44
2023-05-14T18:49:59.346Z,13.29
2023-05-14T18:52:28.554Z,13.15
2023-05-14T19:22:57.573Z,12.97
2023-05-14T19:46:44.182Z,12.88
2023-05-14T20:24:34.080Z,12.61
2023-05-14T21:01:32.383Z,12.48
2023-05-14T21:04:24.668Z,12.48
2023-05-14T21:07:17.924Z,12.47
2023-05-14T21:10:11.027Z,12.45
2023-05-14T21:12:38.114Z,12.44
2023-05-14T22:52:11.021Z,11.58
2023-05-14T22:55:04.263Z,11.56
2023-05-14T22:58:47.894Z,11.53
2023-05-14T23:01:15.144Z,11.37
2023-05-14T23:04:08.064Z,11.49
2023-05-14T23:06:59.573Z,11.47
